sensor_id;sensor_type;location;lat;lon;timestamp;temperature;humidity
19803;DHT22;66074;50.764;6.090;2023-03-19T00:02:00;12.30;96.40
19803;DHT22;66074;50.764;6.090;2023-03-19T00:04:26;12.30;96.30
19803;DHT22;66074;50.764;6.090;2023-03-19T00:06:55;12.30;96.30
19803;DHT22;66074;50.764;6.090;2023-03-19T00:09:23;12.30;96.60
19803;DHT22;66074;50.764;6.090;2023-03-19T00:12:10;12.30;96.90
19803;DHT22;66074;50.764;6.090;2023-03-19T00:14:54;12.30;97.90
19803;DHT22;66074;50.764;6.090;2023-03-19T00:17:20;12.20;96.90
19803;DHT22;66074;50.764;6.090;2023-03-19T00:19:46;12.20;96.80
19803;DHT22;66074;50.764;6.090;2023-03-19T00:22:18;12.20;96.90
19803;DHT22;66074;50.764;6.090;2023-03-19T00:24:52;12.20;97.20
19803;DHT22;66074;50.764;6.090;2023-03-19T00:27:21;12.10;97.40
19803;DHT22;66074;50.764;6.090;2023-03-19T00:29:46;12.10;97.10
19803;DHT22;66074;50.764;6.090;2023-03-19T00:32:12;12.00;97.30
19803;DHT22;66074;50.764;6.090;2023-03-19T00:34:39;12.00;97.50
19803;DHT22;66074;50.764;6.090;2023-03-19T00:37:05;12.00;97.50
19803;DHT22;66074;50.764;6.090;2023-03-19T00:39:36;12.00;97.40
19803;DHT22;66074;50.764;6.090;2023-03-19T00:42:01;12.00;97.40
19803;DHT22;66074;50.764;6.090;2023-03-19T00:44:27;12.00;97.50
19803;DHT22;66074;50.764;6.090;2023-03-19T00:46:53;12.10;97.40
19803;DHT22;66074;50.764;6.090;2023-03-19T00:49:19;12.10;97.30
19803;DHT22;66074;50.764;6.090;2023-03-19T00:51:51;12.20;97.30
19803;DHT22;66074;50.764;6.090;2023-03-19T00:54:17;12.10;97.40
19803;DHT22;66074;50.764;6.090;2023-03-19T00:56:42;12.10;97.40
19803;DHT22;66074;50.764;6.090;2023-03-19T00:59:08;12.20;97.50
19803;DHT22;66074;50.764;6.090;2023-03-19T01:01:34;12.20;97.40
19803;DHT22;66074;50.764;6.090;2023-03-19T01:03:59;12.30;97.40
19803;DHT22;66074;50.764;6.090;2023-03-19T01:06:29;12.30;97.40
19803;DHT22;66074;50.764;6.090;2023-03-19T01:08:55;12.30;97.40
19803;DHT22;66074;50.764;6.090;2023-03-19T01:11:21;12.40;97.40
19803;DHT22;66074;50.764;6.090;2023-03-19T01:13:50;12.40;97.30
19803;DHT22;66074;50.764;6.090;2023-03-19T01:16:15;12.40;97.40
19803;DHT22;66074;50.764;6.090;2023-03-19T01:18:41;12.40;97.20
19803;DHT22;66074;50.764;6.090;2023-03-19T01:21:07;12.40;97.20
19803;DHT22;66074;50.764;6.090;2023-03-19T01:23:33;12.40;97.10
19803;DHT22;66074;50.764;6.090;2023-03-19T01:26:01;12.40;97.10
19803;DHT22;66074;50.764;6.090;2023-03-19T01:28:27;12.40;97.00
19803;DHT22;66074;50.764;6.090;2023-03-19T01:30:58;12.40;97.10
19803;DHT22;66074;50.764;6.090;2023-03-19T01:33:25;12.40;97.20
19803;DHT22;66074;50.764;6.090;2023-03-19T01:35:51;12.30;96.90
19803;DHT22;66074;50.764;6.090;2023-03-19T01:38:16;12.40;97.00
19803;DHT22;66074;50.764;6.090;2023-03-19T01:40:46;12.40;97.00
19803;DHT22;66074;50.764;6.090;2023-03-19T01:45:46;12.40;97.10
19803;DHT22;66074;50.764;6.090;2023-03-19T01:48:26;12.30;97.00
19803;DHT22;66074;50.764;6.090;2023-03-19T01:50:53;12.40;97.00
19803;DHT22;66074;50.764;6.090;2023-03-19T01:53:27;12.40;96.90
19803;DHT22;66074;50.764;6.090;2023-03-19T01:56:02;12.40;97.10
19803;DHT22;66074;50.764;6.090;2023-03-19T01:58:28;12.40;97.00
19803;DHT22;66074;50.764;6.090;2023-03-19T02:00:54;12.40;96.80
19803;DHT22;66074;50.764;6.090;2023-03-19T02:03:22;12.40;96.90
19803;DHT22;66074;50.764;6.090;2023-03-19T02:05:48;12.40;96.70
19803;DHT22;66074;50.764;6.090;2023-03-19T02:08:16;12.40;96.70
19803;DHT22;66074;50.764;6.090;2023-03-19T02:10:45;12.40;96.80
19803;DHT22;66074;50.764;6.090;2023-03-19T02:13:12;12.40;97.20
19803;DHT22;66074;50.764;6.090;2023-03-19T02:15:37;12.30;96.70
19803;DHT22;66074;50.764;6.090;2023-03-19T02:18:04;12.30;96.70
19803;DHT22;66074;50.764;6.090;2023-03-19T02:20:35;12.20;96.70
19803;DHT22;66074;50.764;6.090;2023-03-19T02:28:14;12.00;96.90
19803;DHT22;66074;50.764;6.090;2023-03-19T02:30:42;12.00;96.80
19803;DHT22;66074;50.764;6.090;2023-03-19T02:33:12;12.00;96.70
19803;DHT22;66074;50.764;6.090;2023-03-19T02:35:37;11.90;96.80
19803;DHT22;66074;50.764;6.090;2023-03-19T02:38:04;11.90;96.70
19803;DHT22;66074;50.764;6.090;2023-03-19T02:40:33;11.80;96.90
19803;DHT22;66074;50.764;6.090;2023-03-19T02:42:59;11.80;96.80
19803;DHT22;66074;50.764;6.090;2023-03-19T02:45:30;11.70;96.80
19803;DHT22;66074;50.764;6.090;2023-03-19T02:47:56;11.70;97.10
19803;DHT22;66074;50.764;6.090;2023-03-19T02:50:22;11.70;97.00
19803;DHT22;66074;50.764;6.090;2023-03-19T02:52:48;11.70;97.50
19803;DHT22;66074;50.764;6.090;2023-03-19T02:55:14;11.60;97.10
19803;DHT22;66074;50.764;6.090;2023-03-19T02:57:43;11.60;97.20
19803;DHT22;66074;50.764;6.090;2023-03-19T03:00:10;11.60;97.10
19803;DHT22;66074;50.764;6.090;2023-03-19T03:02:36;11.60;97.30
19803;DHT22;66074;50.764;6.090;2023-03-19T03:05:03;11.60;97.20
19803;DHT22;66074;50.764;6.090;2023-03-19T03:07:29;11.60;97.20
19803;DHT22;66074;50.764;6.090;2023-03-19T03:09:55;11.70;97.30
19803;DHT22;66074;50.764;6.090;2023-03-19T03:12:21;11.80;97.20
19803;DHT22;66074;50.764;6.090;2023-03-19T03:14:47;11.80;97.20
19803;DHT22;66074;50.764;6.090;2023-03-19T03:17:12;11.80;97.40
19803;DHT22;66074;50.764;6.090;2023-03-19T03:19:38;11.80;97.40
19803;DHT22;66074;50.764;6.090;2023-03-19T03:22:04;11.90;97.30
19803;DHT22;66074;50.764;6.090;2023-03-19T03:24:36;11.80;97.40
19803;DHT22;66074;50.764;6.090;2023-03-19T03:27:04;11.80;97.50
19803;DHT22;66074;50.764;6.090;2023-03-19T03:29:29;11.90;97.30
19803;DHT22;66074;50.764;6.090;2023-03-19T03:31:55;11.90;97.30
19803;DHT22;66074;50.764;6.090;2023-03-19T03:34:21;11.90;97.30
19803;DHT22;66074;50.764;6.090;2023-03-19T03:36:47;12.00;97.30
19803;DHT22;66074;50.764;6.090;2023-03-19T03:39:13;11.90;97.40
19803;DHT22;66074;50.764;6.090;2023-03-19T03:41:38;11.90;97.30
19803;DHT22;66074;50.764;6.090;2023-03-19T03:44:04;12.00;97.30
19803;DHT22;66074;50.764;6.090;2023-03-19T03:46:30;12.00;97.60
19803;DHT22;66074;50.764;6.090;2023-03-19T03:48:55;12.00;97.40
19803;DHT22;66074;50.764;6.090;2023-03-19T03:51:21;12.00;97.40
19803;DHT22;66074;50.764;6.090;2023-03-19T03:53:47;12.00;97.50
19803;DHT22;66074;50.764;6.090;2023-03-19T03:56:13;12.00;97.50
19803;DHT22;66074;50.764;6.090;2023-03-19T03:58:38;12.00;97.30
19803;DHT22;66074;50.764;6.090;2023-03-19T04:01:05;12.00;97.40
19803;DHT22;66074;50.764;6.090;2023-03-19T04:03:31;12.00;97.40
19803;DHT22;66074;50.764;6.090;2023-03-19T04:05:57;12.00;97.30
19803;DHT22;66074;50.764;6.090;2023-03-19T04:08:23;12.00;97.30
19803;DHT22;66074;50.764;6.090;2023-03-19T04:10:49;12.00;97.40
19803;DHT22;66074;50.764;6.090;2023-03-19T04:13:15;11.90;97.40
19803;DHT22;66074;50.764;6.090;2023-03-19T04:15:42;12.00;97.40
19803;DHT22;66074;50.764;6.090;2023-03-19T04:18:07;12.00;97.50
19803;DHT22;66074;50.764;6.090;2023-03-19T04:20:33;11.90;97.60
19803;DHT22;66074;50.764;6.090;2023-03-19T04:22:59;11.90;97.60
19803;DHT22;66074;50.764;6.090;2023-03-19T04:25:24;11.90;97.60
19803;DHT22;66074;50.764;6.090;2023-03-19T04:27:50;12.00;97.70
19803;DHT22;66074;50.764;6.090;2023-03-19T04:30:17;12.00;97.70
19803;DHT22;66074;50.764;6.090;2023-03-19T04:32:43;12.00;98.00
19803;DHT22;66074;50.764;6.090;2023-03-19T04:35:08;12.00;97.70
19803;DHT22;66074;50.764;6.090;2023-03-19T04:37:34;12.10;97.80
19803;DHT22;66074;50.764;6.090;2023-03-19T04:40:00;12.10;97.80
19803;DHT22;66074;50.764;6.090;2023-03-19T04:42:25;12.10;97.80
19803;DHT22;66074;50.764;6.090;2023-03-19T04:44:51;12.10;97.70
19803;DHT22;66074;50.764;6.090;2023-03-19T04:47:17;12.10;97.70
19803;DHT22;66074;50.764;6.090;2023-03-19T04:49:43;12.10;97.80
19803;DHT22;66074;50.764;6.090;2023-03-19T04:52:09;12.10;97.90
19803;DHT22;66074;50.764;6.090;2023-03-19T04:54:34;12.10;97.90
19803;DHT22;66074;50.764;6.090;2023-03-19T04:57:00;12.20;98.00
19803;DHT22;66074;50.764;6.090;2023-03-19T04:59:26;12.10;98.10
19803;DHT22;66074;50.764;6.090;2023-03-19T05:01:51;12.10;98.10
19803;DHT22;66074;50.764;6.090;2023-03-19T05:04:17;12.10;98.50
19803;DHT22;66074;50.764;6.090;2023-03-19T05:06:43;12.10;98.30
19803;DHT22;66074;50.764;6.090;2023-03-19T05:09:08;12.10;98.40
19803;DHT22;66074;50.764;6.090;2023-03-19T05:11:34;12.10;98.40
19803;DHT22;66074;50.764;6.090;2023-03-19T05:13:59;12.10;98.30
19803;DHT22;66074;50.764;6.090;2023-03-19T05:16:25;12.10;98.40
19803;DHT22;66074;50.764;6.090;2023-03-19T05:18:52;12.10;98.40
19803;DHT22;66074;50.764;6.090;2023-03-19T05:21:17;12.10;98.40
19803;DHT22;66074;50.764;6.090;2023-03-19T05:23:43;12.20;98.50
19803;DHT22;66074;50.764;6.090;2023-03-19T05:26:09;12.20;98.60
19803;DHT22;66074;50.764;6.090;2023-03-19T05:28:35;12.30;98.60
19803;DHT22;66074;50.764;6.090;2023-03-19T05:31:03;12.20;98.60
19803;DHT22;66074;50.764;6.090;2023-03-19T05:33:29;12.20;98.70
19803;DHT22;66074;50.764;6.090;2023-03-19T05:35:54;12.20;98.70
19803;DHT22;66074;50.764;6.090;2023-03-19T05:38:20;12.20;98.70
19803;DHT22;66074;50.764;6.090;2023-03-19T05:40:46;12.20;98.60
19803;DHT22;66074;50.764;6.090;2023-03-19T05:43:12;12.10;98.60
19803;DHT22;66074;50.764;6.090;2023-03-19T05:45:37;12.10;98.60
19803;DHT22;66074;50.764;6.090;2023-03-19T05:48:04;12.10;98.60
19803;DHT22;66074;50.764;6.090;2023-03-19T05:50:30;12.10;98.70
19803;DHT22;66074;50.764;6.090;2023-03-19T05:52:57;12.20;98.70
19803;DHT22;66074;50.764;6.090;2023-03-19T05:55:23;12.20;98.70
19803;DHT22;66074;50.764;6.090;2023-03-19T05:57:49;12.10;98.60
19803;DHT22;66074;50.764;6.090;2023-03-19T06:00:15;12.10;98.60
19803;DHT22;66074;50.764;6.090;2023-03-19T06:02:41;12.10;98.60
19803;DHT22;66074;50.764;6.090;2023-03-19T06:05:08;12.20;98.60
19803;DHT22;66074;50.764;6.090;2023-03-19T06:07:34;12.20;98.60
19803;DHT22;66074;50.764;6.090;2023-03-19T06:10:00;12.20;98.60
19803;DHT22;66074;50.764;6.090;2023-03-19T06:12:25;12.20;98.60
19803;DHT22;66074;50.764;6.090;2023-03-19T06:14:51;12.20;98.60
19803;DHT22;66074;50.764;6.090;2023-03-19T06:17:17;12.20;98.70
19803;DHT22;66074;50.764;6.090;2023-03-19T06:19:42;12.30;98.70
19803;DHT22;66074;50.764;6.090;2023-03-19T06:22:08;12.30;98.60
19803;DHT22;66074;50.764;6.090;2023-03-19T06:24:34;12.30;98.70
19803;DHT22;66074;50.764;6.090;2023-03-19T06:27:00;12.30;98.70
19803;DHT22;66074;50.764;6.090;2023-03-19T06:29:25;12.40;98.60
19803;DHT22;66074;50.764;6.090;2023-03-19T06:31:51;12.40;98.70
19803;DHT22;66074;50.764;6.090;2023-03-19T06:34:17;12.40;98.70
19803;DHT22;66074;50.764;6.090;2023-03-19T06:36:43;12.50;98.60
19803;DHT22;66074;50.764;6.090;2023-03-19T06:39:09;12.50;98.60
19803;DHT22;66074;50.764;6.090;2023-03-19T06:41:35;12.50;98.60
19803;DHT22;66074;50.764;6.090;2023-03-19T06:44:02;12.50;98.70
19803;DHT22;66074;50.764;6.090;2023-03-19T06:46:27;12.50;98.70
19803;DHT22;66074;50.764;6.090;2023-03-19T06:48:53;12.60;98.70
19803;DHT22;66074;50.764;6.090;2023-03-19T06:51:19;12.60;98.60
19803;DHT22;66074;50.764;6.090;2023-03-19T06:53:45;12.60;98.60
19803;DHT22;66074;50.764;6.090;2023-03-19T06:56:11;12.70;98.60
19803;DHT22;66074;50.764;6.090;2023-03-19T06:58:37;12.70;98.60
19803;DHT22;66074;50.764;6.090;2023-03-19T07:01:02;12.60;98.60
19803;DHT22;66074;50.764;6.090;2023-03-19T07:03:28;12.60;98.60
19803;DHT22;66074;50.764;6.090;2023-03-19T07:05:54;12.70;98.60
19803;DHT22;66074;50.764;6.090;2023-03-19T07:08:20;12.60;98.50
19803;DHT22;66074;50.764;6.090;2023-03-19T07:10:45;12.60;98.50
19803;DHT22;66074;50.764;6.090;2023-03-19T07:13:11;12.70;98.50
19803;DHT22;66074;50.764;6.090;2023-03-19T07:15:37;12.70;98.50
19803;DHT22;66074;50.764;6.090;2023-03-19T07:18:03;12.70;98.60
19803;DHT22;66074;50.764;6.090;2023-03-19T07:20:28;12.80;98.60
19803;DHT22;66074;50.764;6.090;2023-03-19T07:22:54;12.80;98.50
19803;DHT22;66074;50.764;6.090;2023-03-19T07:25:20;12.80;98.60
19803;DHT22;66074;50.764;6.090;2023-03-19T07:27:46;12.80;98.50
19803;DHT22;66074;50.764;6.090;2023-03-19T07:30:13;12.90;98.50
19803;DHT22;66074;50.764;6.090;2023-03-19T07:32:39;12.90;98.40
19803;DHT22;66074;50.764;6.090;2023-03-19T07:35:06;12.90;98.40
19803;DHT22;66074;50.764;6.090;2023-03-19T07:37:32;12.90;98.40
19803;DHT22;66074;50.764;6.090;2023-03-19T07:39:57;13.00;98.50
19803;DHT22;66074;50.764;6.090;2023-03-19T07:42:23;13.00;98.50
19803;DHT22;66074;50.764;6.090;2023-03-19T07:44:49;13.10;98.60
19803;DHT22;66074;50.764;6.090;2023-03-19T07:47:14;13.20;98.50
19803;DHT22;66074;50.764;6.090;2023-03-19T07:49:40;13.20;98.40
19803;DHT22;66074;50.764;6.090;2023-03-19T07:52:06;13.30;98.50
19803;DHT22;66074;50.764;6.090;2023-03-19T07:54:32;13.30;98.40
19803;DHT22;66074;50.764;6.090;2023-03-19T07:56:57;13.30;98.30
19803;DHT22;66074;50.764;6.090;2023-03-19T07:59:23;13.30;98.20
19803;DHT22;66074;50.764;6.090;2023-03-19T08:01:48;13.40;98.20
19803;DHT22;66074;50.764;6.090;2023-03-19T08:04:14;13.40;98.20
19803;DHT22;66074;50.764;6.090;2023-03-19T08:06:41;13.50;98.30
19803;DHT22;66074;50.764;6.090;2023-03-19T08:09:06;13.50;98.20
19803;DHT22;66074;50.764;6.090;2023-03-19T08:11:32;13.50;98.10
19803;DHT22;66074;50.764;6.090;2023-03-19T08:13:58;13.70;98.10
19803;DHT22;66074;50.764;6.090;2023-03-19T08:16:23;13.70;98.20
19803;DHT22;66074;50.764;6.090;2023-03-19T08:18:49;13.80;98.20
19803;DHT22;66074;50.764;6.090;2023-03-19T08:21:16;13.80;98.10
19803;DHT22;66074;50.764;6.090;2023-03-19T08:23:41;13.80;98.00
19803;DHT22;66074;50.764;6.090;2023-03-19T08:26:07;13.80;98.00
19803;DHT22;66074;50.764;6.090;2023-03-19T08:28:33;13.80;97.90
19803;DHT22;66074;50.764;6.090;2023-03-19T08:31:08;13.80;98.00
19803;DHT22;66074;50.764;6.090;2023-03-19T08:33:34;13.80;97.90
19803;DHT22;66074;50.764;6.090;2023-03-19T08:36:08;13.80;97.90
19803;DHT22;66074;50.764;6.090;2023-03-19T08:38:35;13.80;97.90
19803;DHT22;66074;50.764;6.090;2023-03-19T08:41:00;13.80;97.70
19803;DHT22;66074;50.764;6.090;2023-03-19T08:43:29;13.90;97.80
19803;DHT22;66074;50.764;6.090;2023-03-19T08:45:55;13.90;97.70
19803;DHT22;66074;50.764;6.090;2023-03-19T08:48:21;13.90;97.60
19803;DHT22;66074;50.764;6.090;2023-03-19T08:50:55;13.90;97.60
19803;DHT22;66074;50.764;6.090;2023-03-19T08:53:21;13.80;97.50
19803;DHT22;66074;50.764;6.090;2023-03-19T08:56:00;13.70;97.60
19803;DHT22;66074;50.764;6.090;2023-03-19T08:58:27;13.80;97.70
19803;DHT22;66074;50.764;6.090;2023-03-19T09:00:59;13.80;97.70
19803;DHT22;66074;50.764;6.090;2023-03-19T09:03:25;13.80;97.70
19803;DHT22;66074;50.764;6.090;2023-03-19T09:05:51;14.00;97.90
19803;DHT22;66074;50.764;6.090;2023-03-19T09:08:17;14.20;97.90
19803;DHT22;66074;50.764;6.090;2023-03-19T09:10:43;14.40;98.00
19803;DHT22;66074;50.764;6.090;2023-03-19T09:13:08;14.50;97.90
19803;DHT22;66074;50.764;6.090;2023-03-19T09:15:34;14.60;97.70
19803;DHT22;66074;50.764;6.090;2023-03-19T09:17:59;14.70;98.00
19803;DHT22;66074;50.764;6.090;2023-03-19T09:20:25;14.80;97.70
19803;DHT22;66074;50.764;6.090;2023-03-19T09:22:51;14.90;97.50
19803;DHT22;66074;50.764;6.090;2023-03-19T09:25:17;15.00;97.40
19803;DHT22;66074;50.764;6.090;2023-03-19T09:27:42;15.00;97.30
19803;DHT22;66074;50.764;6.090;2023-03-19T09:30:08;15.00;97.20
19803;DHT22;66074;50.764;6.090;2023-03-19T09:32:35;14.90;97.10
19803;DHT22;66074;50.764;6.090;2023-03-19T09:35:01;14.80;96.90
19803;DHT22;66074;50.764;6.090;2023-03-19T09:37:27;14.80;96.90
19803;DHT22;66074;50.764;6.090;2023-03-19T09:39:52;14.80;96.90
19803;DHT22;66074;50.764;6.090;2023-03-19T09:42:38;14.80;96.80
19803;DHT22;66074;50.764;6.090;2023-03-19T09:45:13;15.00;96.60
19803;DHT22;66074;50.764;6.090;2023-03-19T09:47:39;15.10;96.60
19803;DHT22;66074;50.764;6.090;2023-03-19T09:50:12;15.20;96.80
19803;DHT22;66074;50.764;6.090;2023-03-19T09:57:57;15.40;96.30
19803;DHT22;66074;50.764;6.090;2023-03-19T10:00:29;15.30;96.20
19803;DHT22;66074;50.764;6.090;2023-03-19T10:15:05;15.30;96.20
19803;DHT22;66074;50.764;6.090;2023-03-19T10:17:43;15.30;96.10
19803;DHT22;66074;50.764;6.090;2023-03-19T10:20:31;15.40;96.50
19803;DHT22;66074;50.764;6.090;2023-03-19T10:25:32;15.60;96.60
19803;DHT22;66074;50.764;6.090;2023-03-19T10:28:14;15.70;96.70
19803;DHT22;66074;50.764;6.090;2023-03-19T10:30:41;15.80;96.60
19803;DHT22;66074;50.764;6.090;2023-03-19T10:33:23;15.90;96.50
19803;DHT22;66074;50.764;6.090;2023-03-19T10:36:03;16.00;96.20
19803;DHT22;66074;50.764;6.090;2023-03-19T10:38:30;16.00;95.50
19803;DHT22;66074;50.764;6.090;2023-03-19T10:43:51;15.90;95.40
19803;DHT22;66074;50.764;6.090;2023-03-19T10:46:17;15.90;95.40
19803;DHT22;66074;50.764;6.090;2023-03-19T10:48:47;15.90;95.70
19803;DHT22;66074;50.764;6.090;2023-03-19T10:51:23;15.90;95.90
19803;DHT22;66074;50.764;6.090;2023-03-19T10:53:52;15.90;95.70
19803;DHT22;66074;50.764;6.090;2023-03-19T10:56:25;16.00;95.90
19803;DHT22;66074;50.764;6.090;2023-03-19T10:59:06;16.10;95.90
19803;DHT22;66074;50.764;6.090;2023-03-19T11:01:38;16.40;95.60
19803;DHT22;66074;50.764;6.090;2023-03-19T11:04:13;16.50;95.60
19803;DHT22;66074;50.764;6.090;2023-03-19T11:06:47;16.70;95.10
19803;DHT22;66074;50.764;6.090;2023-03-19T11:09:18;16.80;95.10
19803;DHT22;66074;50.764;6.090;2023-03-19T11:11:50;16.90;94.90
19803;DHT22;66074;50.764;6.090;2023-03-19T11:14:37;17.00;94.60
19803;DHT22;66074;50.764;6.090;2023-03-19T11:17:13;16.90;93.90
19803;DHT22;66074;50.764;6.090;2023-03-19T11:19:41;17.00;94.40
19803;DHT22;66074;50.764;6.090;2023-03-19T11:22:16;17.00;94.30
19803;DHT22;66074;50.764;6.090;2023-03-19T11:27:29;16.80;93.60
19803;DHT22;66074;50.764;6.090;2023-03-19T11:29:56;16.70;93.00
19803;DHT22;66074;50.764;6.090;2023-03-19T11:32:37;16.70;93.60
19803;DHT22;66074;50.764;6.090;2023-03-19T11:35:24;16.60;93.10
19803;DHT22;66074;50.764;6.090;2023-03-19T11:38:01;16.70;93.30
19803;DHT22;66074;50.764;6.090;2023-03-19T11:40:44;16.80;93.20
19803;DHT22;66074;50.764;6.090;2023-03-19T11:52:22;16.70;92.30
19803;DHT22;66074;50.764;6.090;2023-03-19T12:00:45;16.50;92.90
19803;DHT22;66074;50.764;6.090;2023-03-19T12:03:38;16.50;92.00
19803;DHT22;66074;50.764;6.090;2023-03-19T12:06:23;16.40;91.50
19803;DHT22;66074;50.764;6.090;2023-03-19T12:33:05;16.50;92.50
19803;DHT22;66074;50.764;6.090;2023-03-19T12:35:39;16.40;92.00
19803;DHT22;66074;50.764;6.090;2023-03-19T12:38:25;16.30;92.30
19803;DHT22;66074;50.764;6.090;2023-03-19T12:41:02;16.20;92.00
19803;DHT22;66074;50.764;6.090;2023-03-19T12:43:33;16.20;92.20
19803;DHT22;66074;50.764;6.090;2023-03-19T12:46:57;16.00;92.30
19803;DHT22;66074;50.764;6.090;2023-03-19T12:49:20;15.80;91.90
19803;DHT22;66074;50.764;6.090;2023-03-19T12:54:43;15.60;92.40
19803;DHT22;66074;50.764;6.090;2023-03-19T13:00:06;15.70;92.20
19803;DHT22;66074;50.764;6.090;2023-03-19T13:02:52;15.70;92.00
19803;DHT22;66074;50.764;6.090;2023-03-19T13:10:47;16.10;91.80
19803;DHT22;66074;50.764;6.090;2023-03-19T13:16:17;16.30;91.90
19803;DHT22;66074;50.764;6.090;2023-03-19T13:21:31;16.80;91.80
19803;DHT22;66074;50.764;6.090;2023-03-19T13:24:18;17.10;91.90
19803;DHT22;66074;50.764;6.090;2023-03-19T13:26:47;17.30;90.60
19803;DHT22;66074;50.764;6.090;2023-03-19T13:29:32;17.60;91.40
19803;DHT22;66074;50.764;6.090;2023-03-19T13:32:21;17.90;90.60
19803;DHT22;66074;50.764;6.090;2023-03-19T13:34:47;17.70;90.50
19803;DHT22;66074;50.764;6.090;2023-03-19T13:37:15;17.50;90.90
19803;DHT22;66074;50.764;6.090;2023-03-19T13:39:44;17.40;90.70
19803;DHT22;66074;50.764;6.090;2023-03-19T13:42:39;17.40;90.70
19803;DHT22;66074;50.764;6.090;2023-03-19T13:47:56;17.80;87.40
19803;DHT22;66074;50.764;6.090;2023-03-19T13:50:30;17.90;89.50
19803;DHT22;66074;50.764;6.090;2023-03-19T13:56:03;18.70;87.60
19803;DHT22;66074;50.764;6.090;2023-03-19T13:58:29;19.10;89.00
19803;DHT22;66074;50.764;6.090;2023-03-19T14:04:05;18.60;87.50
19803;DHT22;66074;50.764;6.090;2023-03-19T14:06:39;18.50;88.50
19803;DHT22;66074;50.764;6.090;2023-03-19T14:15:40;18.20;87.30
19803;DHT22;66074;50.764;6.090;2023-03-19T14:18:20;18.10;88.70
19803;DHT22;66074;50.764;6.090;2023-03-19T14:20:57;18.30;88.90
19803;DHT22;66074;50.764;6.090;2023-03-19T14:23:26;18.40;88.20
19803;DHT22;66074;50.764;6.090;2023-03-19T14:28:33;18.30;88.20
19803;DHT22;66074;50.764;6.090;2023-03-19T14:31:02;18.30;88.10
19803;DHT22;66074;50.764;6.090;2023-03-19T14:33:51;18.30;88.60
19803;DHT22;66074;50.764;6.090;2023-03-19T14:36:19;18.10;87.00
19803;DHT22;66074;50.764;6.090;2023-03-19T14:39:17;17.90;88.20
19803;DHT22;66074;50.764;6.090;2023-03-19T14:41:45;17.80;87.20
19803;DHT22;66074;50.764;6.090;2023-03-19T14:52:35;17.10;89.10
19803;DHT22;66074;50.764;6.090;2023-03-19T14:55:09;17.00;89.00
19803;DHT22;66074;50.764;6.090;2023-03-19T14:57:35;17.00;89.60
19803;DHT22;66074;50.764;6.090;2023-03-19T15:00:04;17.00;89.70
19803;DHT22;66074;50.764;6.090;2023-03-19T15:02:39;17.00;89.20
19803;DHT22;66074;50.764;6.090;2023-03-19T15:05:07;16.90;88.80
19803;DHT22;66074;50.764;6.090;2023-03-19T15:07:40;16.80;89.30
19803;DHT22;66074;50.764;6.090;2023-03-19T15:10:12;16.80;90.00
19803;DHT22;66074;50.764;6.090;2023-03-19T15:18:16;16.70;90.00
19803;DHT22;66074;50.764;6.090;2023-03-19T15:20:46;16.80;90.10
19803;DHT22;66074;50.764;6.090;2023-03-19T15:23:23;16.80;90.10
19803;DHT22;66074;50.764;6.090;2023-03-19T15:25:58;16.70;90.00
19803;DHT22;66074;50.764;6.090;2023-03-19T15:28:28;16.60;90.00
19803;DHT22;66074;50.764;6.090;2023-03-19T15:30:56;16.50;90.00
19803;DHT22;66074;50.764;6.090;2023-03-19T15:33:26;16.40;90.10
19803;DHT22;66074;50.764;6.090;2023-03-19T15:41:15;16.00;90.00
19803;DHT22;66074;50.764;6.090;2023-03-19T15:43:42;15.90;90.00
19803;DHT22;66074;50.764;6.090;2023-03-19T15:46:18;15.80;90.00
19803;DHT22;66074;50.764;6.090;2023-03-19T15:49:08;15.80;90.30
19803;DHT22;66074;50.764;6.090;2023-03-19T15:51:35;15.70;90.40
19803;DHT22;66074;50.764;6.090;2023-03-19T15:54:02;15.50;90.40
19803;DHT22;66074;50.764;6.090;2023-03-19T15:56:29;15.50;90.50
19803;DHT22;66074;50.764;6.090;2023-03-19T15:58:58;15.40;90.60
19803;DHT22;66074;50.764;6.090;2023-03-19T16:01:25;15.40;90.80
19803;DHT22;66074;50.764;6.090;2023-03-19T16:04:02;15.30;90.70
19803;DHT22;66074;50.764;6.090;2023-03-19T16:06:39;15.20;91.00
19803;DHT22;66074;50.764;6.090;2023-03-19T16:09:18;15.20;91.30
19803;DHT22;66074;50.764;6.090;2023-03-19T16:11:45;15.10;91.30
19803;DHT22;66074;50.764;6.090;2023-03-19T16:14:22;15.10;91.10
19803;DHT22;66074;50.764;6.090;2023-03-19T16:16:50;15.10;91.40
19803;DHT22;66074;50.764;6.090;2023-03-19T16:19:38;15.10;91.20
19803;DHT22;66074;50.764;6.090;2023-03-19T16:22:17;15.00;91.70
19803;DHT22;66074;50.764;6.090;2023-03-19T16:24:46;15.00;91.60
19803;DHT22;66074;50.764;6.090;2023-03-19T16:27:15;15.00;91.50
19803;DHT22;66074;50.764;6.090;2023-03-19T16:29:55;15.00;91.60
19803;DHT22;66074;50.764;6.090;2023-03-19T16:32:29;15.00;91.90
19803;DHT22;66074;50.764;6.090;2023-03-19T16:35:22;15.00;91.60
19803;DHT22;66074;50.764;6.090;2023-03-19T16:38:12;14.90;92.00
19803;DHT22;66074;50.764;6.090;2023-03-19T16:40:46;14.90;91.90
19803;DHT22;66074;50.764;6.090;2023-03-19T16:43:17;14.90;91.80
19803;DHT22;66074;50.764;6.090;2023-03-19T16:45:48;14.80;92.10
19803;DHT22;66074;50.764;6.090;2023-03-19T16:48:14;14.70;91.90
19803;DHT22;66074;50.764;6.090;2023-03-19T16:50:40;14.70;92.00
19803;DHT22;66074;50.764;6.090;2023-03-19T16:53:23;14.70;92.10
19803;DHT22;66074;50.764;6.090;2023-03-19T16:55:50;14.70;92.60
19803;DHT22;66074;50.764;6.090;2023-03-19T16:58:19;14.70;92.20
19803;DHT22;66074;50.764;6.090;2023-03-19T17:00:48;14.80;92.30
19803;DHT22;66074;50.764;6.090;2023-03-19T17:03:16;14.60;92.20
19803;DHT22;66074;50.764;6.090;2023-03-19T17:05:44;14.60;92.20
19803;DHT22;66074;50.764;6.090;2023-03-19T17:08:13;14.60;92.60
19803;DHT22;66074;50.764;6.090;2023-03-19T17:10:46;14.70;92.50
19803;DHT22;66074;50.764;6.090;2023-03-19T17:13:25;14.70;92.60
19803;DHT22;66074;50.764;6.090;2023-03-19T17:15:54;14.60;92.60
19803;DHT22;66074;50.764;6.090;2023-03-19T17:18:23;14.60;92.40
19803;DHT22;66074;50.764;6.090;2023-03-19T17:20:54;14.50;92.40
19803;DHT22;66074;50.764;6.090;2023-03-19T17:23:21;14.50;92.60
19803;DHT22;66074;50.764;6.090;2023-03-19T17:25:52;14.40;92.40
19803;DHT22;66074;50.764;6.090;2023-03-19T17:28:18;14.30;92.50
19803;DHT22;66074;50.764;6.090;2023-03-19T17:30:44;14.40;92.70
19803;DHT22;66074;50.764;6.090;2023-03-19T17:33:29;14.40;92.70
19803;DHT22;66074;50.764;6.090;2023-03-19T17:35:56;14.40;93.10
19803;DHT22;66074;50.764;6.090;2023-03-19T17:38:27;14.40;92.80
19803;DHT22;66074;50.764;6.090;2023-03-19T17:40:55;14.30;92.90
19803;DHT22;66074;50.764;6.090;2023-03-19T17:43:21;14.40;93.00
19803;DHT22;66074;50.764;6.090;2023-03-19T17:45:47;14.40;93.10
19803;DHT22;66074;50.764;6.090;2023-03-19T17:48:22;14.30;93.10
19803;DHT22;66074;50.764;6.090;2023-03-19T17:50:51;14.20;93.50